Time;durP1;ratioP1;P1;durP2;ratioP2;P2;SDS_P1;SDS_P2;PMS_P1;PMS_P2;Temp;Humidity;BMP_temperature;BMP_pressure;BME280_temperature;BME280_humidity;BME280_pressure;Samples;Min_cycle;Max_cycle;Signal;HPM_P1;HPM_P2
2022/07/10 00:00:46;;;;;;;6.68;1.13;;;15.10;99.90;;;;;;5071372;28;20040;-62
2022/07/10 00:03:14;;;;;;;9.93;2.15;;;15.10;99.90;;;;;;5071776;28;20123;-63
2022/07/10 00:05:41;;;;;;;5.55;1.10;;;15.10;99.90;;;;;;5071546;28;20380;-63
2022/07/10 00:08:06;;;;;;;7.90;1.33;;;15.10;99.90;;;;;;5071159;28;20040;-63
2022/07/10 00:10:34;;;;;;;11.25;2.33;;;15.10;99.90;;;;;;5071122;28;20037;-63
2022/07/10 00:13:05;;;;;;;6.68;1.08;;;15.10;99.90;;;;;;5071266;28;20160;-62
2022/07/10 00:15:33;;;;;;;7.60;1.90;;;15.10;99.90;;;;;;5071532;28;20044;-63
2022/07/10 00:18:00;;;;;;;6.72;1.27;;;15.10;99.90;;;;;;5071452;28;20437;-63
2022/07/10 00:20:27;;;;;;;8.05;1.70;;;15.20;99.90;;;;;;5071464;28;20044;-63
2022/07/10 00:22:54;;;;;;;7.68;1.00;;;15.20;99.90;;;;;;5071432;28;20562;-63
2022/07/10 00:25:21;;;;;;;11.68;1.23;;;15.20;99.90;;;;;;5071785;28;20432;-63
2022/07/10 00:27:49;;;;;;;7.97;1.30;;;15.10;99.90;;;;;;5071431;28;20052;-63
2022/07/10 00:30:16;;;;;;;8.70;1.63;;;15.10;99.90;;;;;;5071554;28;20059;-63
2022/07/10 00:32:44;;;;;;;8.35;1.33;;;15.00;99.90;;;;;;5071340;28;20072;-63
2022/07/10 00:35:11;;;;;;;6.20;1.40;;;15.00;99.90;;;;;;5071591;28;20083;-63
2022/07/10 00:37:39;;;;;;;7.88;1.58;;;15.00;99.90;;;;;;5071056;28;20044;-63
2022/07/10 00:40:07;;;;;;;7.77;1.20;;;15.00;99.90;;;;;;5069919;28;20407;-63
2022/07/10 00:42:35;;;;;;;11.25;1.73;;;15.00;99.90;;;;;;5071190;28;20036;-63
2022/07/10 00:45:04;;;;;;;9.00;1.40;;;15.00;99.90;;;;;;5069823;28;20574;-63
2022/07/10 00:47:34;;;;;;;7.50;1.10;;;15.00;99.90;;;;;;5071127;28;20044;-63
2022/07/10 00:50:18;;;;;;;9.85;1.70;;;15.00;99.90;;;;;;5069795;28;20044;-63
2022/07/10 00:52:47;;;;;;;8.68;1.35;;;15.00;99.90;;;;;;5071102;28;20028;-64
2022/07/10 00:55:15;;;;;;;9.32;1.40;;;15.00;99.90;;;;;;5070921;28;20074;-63
2022/07/10 00:57:41;;;;;;;7.50;1.38;;;15.00;99.90;;;;;;5070685;28;20064;-62
2022/07/10 01:00:11;;;;;;;7.88;1.35;;;15.00;99.90;;;;;;5070753;28;20490;-63
2022/07/10 01:02:43;;;;;;;9.65;1.70;;;14.90;99.90;;;;;;5069509;28;20044;-63
2022/07/10 01:05:10;;;;;;;6.97;1.35;;;14.90;99.90;;;;;;5069705;28;20075;-63
2022/07/10 01:07:38;;;;;;;12.60;2.97;;;14.80;99.90;;;;;;5071019;28;20044;-62
2022/07/10 01:10:06;;;;;;;7.95;1.70;;;14.80;99.90;;;;;;5070948;28;20425;-63
2022/07/10 01:12:37;;;;;;;9.02;1.30;;;14.70;99.90;;;;;;5072360;28;20080;-63
2022/07/10 01:15:08;;;;;;;9.35;1.30;;;14.80;99.90;;;;;;5074775;28;20079;-63
2022/07/10 01:17:35;;;;;;;7.07;1.27;;;14.70;99.90;;;;;;5074496;28;20079;-63
2022/07/10 01:20:07;;;;;;;12.82;2.35;;;14.70;99.90;;;;;;5074410;28;20106;-62
2022/07/10 01:22:35;;;;;;;11.13;1.30;;;14.70;99.90;;;;;;5074281;28;20533;-63
2022/07/10 01:25:03;;;;;;;4.30;1.53;;;14.70;99.90;;;;;;5074411;28;20390;-63
2022/07/10 01:27:29;;;;;;;9.00;1.45;;;14.70;99.90;;;;;;5074303;28;20768;-62
2022/07/10 01:29:58;;;;;;;9.50;1.50;;;14.70;99.90;;;;;;5074450;28;20041;-63
2022/07/10 01:32:37;;;;;;;7.25;1.10;;;14.60;99.90;;;;;;5073994;28;20044;-63
2022/07/10 01:35:05;;;;;;;6.88;1.10;;;14.60;99.90;;;;;;5074239;28;20048;-63
2022/07/10 01:37:33;;;;;;;7.35;0.95;;;14.60;99.90;;;;;;5074172;28;20044;-63
2022/07/10 01:40:00;;;;;;;7.82;1.38;;;14.60;99.90;;;;;;5074073;28;20056;-63
2022/07/10 01:42:29;;;;;;;4.88;0.85;;;14.50;99.90;;;;;;5074114;28;20040;-62
2022/07/10 01:44:55;;;;;;;8.63;1.65;;;14.50;99.90;;;;;;5073924;28;20040;-63
2022/07/10 01:47:25;;;;;;;;;;;14.60;99.90;;;;;;5074592;28;20097;-63
2022/07/10 01:49:55;;;;;;;3.28;0.90;;;14.60;99.90;;;;;;5073479;28;19920;-63
2022/07/10 01:52:27;;;;;;;6.35;1.10;;;14.60;99.90;;;;;;5073949;28;20033;-63
2022/07/10 01:54:54;;;;;;;5.40;1.23;;;14.60;99.90;;;;;;5072723;28;20495;-62
2022/07/10 01:57:20;;;;;;;6.05;1.50;;;14.50;99.90;;;;;;5073630;28;20076;-64
2022/07/10 01:59:48;;;;;;;6.72;1.05;;;14.40;99.90;;;;;;5073788;28;20044;-64
2022/07/10 02:02:15;;;;;;;7.57;1.00;;;14.50;99.90;;;;;;5073725;28;20048;-63
2022/07/10 02:04:44;;;;;;;8.02;1.20;;;14.40;99.90;;;;;;5072216;28;20049;-63
2022/07/10 02:07:12;;;;;;;9.88;1.70;;;14.40;99.90;;;;;;5073579;28;20398;-63
2022/07/10 02:09:42;;;;;;;9.93;1.60;;;14.40;99.90;;;;;;5073699;28;20048;-63
2022/07/10 02:12:14;;;;;;;9.20;1.40;;;14.40;99.90;;;;;;5071640;28;20059;-64
2022/07/10 02:14:42;;;;;;;6.25;1.27;;;14.30;99.90;;;;;;5073346;28;20072;-63
2022/07/10 02:17:11;;;;;;;9.05;1.58;;;14.30;99.90;;;;;;5073389;28;20427;-63
2022/07/10 02:19:37;;;;;;;8.63;1.95;;;14.30;99.90;;;;;;5073480;28;20529;-63
2022/07/10 02:22:03;;;;;;;8.32;1.50;;;14.20;99.90;;;;;;5071801;28;20075;-62
2022/07/10 02:24:30;;;;;;;4.75;1.77;;;14.20;99.90;;;;;;5072533;28;20036;-62
2022/07/10 02:26:58;;;;;;;9.00;1.75;;;14.10;99.90;;;;;;5073165;28;20037;-63
2022/07/10 02:29:27;;;;;;;8.45;1.33;;;14.10;99.90;;;;;;5072988;28;20036;-63
2022/07/10 02:31:56;;;;;;;;;;;14.20;99.90;;;;;;5073429;28;20510;-62
2022/07/10 02:34:23;;;;;;;7.88;1.33;;;14.10;99.90;;;;;;5073010;28;19923;-63
2022/07/10 02:36:50;;;;;;;10.60;1.80;;;14.20;99.90;;;;;;5073015;28;20115;-63
2022/07/10 02:39:18;;;;;;;14.10;2.05;;;14.10;99.90;;;;;;5072893;28;20107;-62
2022/07/10 02:41:47;;;;;;;;;;;14.10;99.90;;;;;;5073460;28;20444;-62
2022/07/10 02:44:14;;;;;;;12.13;2.75;;;14.10;99.90;;;;;;5072818;28;19917;-63
2022/07/10 02:46:40;;;;;;;4.43;1.45;;;14.10;99.90;;;;;;5071766;28;20447;-63
2022/07/10 02:49:07;;;;;;;10.32;2.35;;;14.10;99.90;;;;;;5072913;28;20079;-63
2022/07/10 02:51:34;;;;;;;9.20;2.80;;;14.10;99.90;;;;;;5072587;28;20489;-62
2022/07/10 02:54:02;;;;;;;9.68;1.23;;;14.20;99.90;;;;;;5072625;28;20040;-64
2022/07/10 02:56:29;;;;;;;8.73;1.83;;;14.10;99.90;;;;;;5072848;28;20047;-63
2022/07/10 02:58:58;;;;;;;9.05;1.60;;;14.20;99.90;;;;;;5071316;28;20434;-62
2022/07/10 03:01:25;;;;;;;9.13;2.30;;;14.20;99.90;;;;;;5072539;28;20391;-62
2022/07/10 03:03:54;;;;;;;5.30;1.33;;;14.20;99.90;;;;;;5072539;28;20097;-62
2022/07/10 03:06:23;;;;;;;9.20;1.38;;;14.20;99.90;;;;;;5072557;28;20040;-62
2022/07/10 03:08:49;;;;;;;5.97;1.10;;;14.20;99.90;;;;;;5072434;28;20051;-63
2022/07/10 03:11:19;;;;;;;10.90;1.67;;;14.20;99.90;;;;;;5072817;28;20040;-63
2022/07/10 03:13:46;;;;;;;11.52;1.73;;;14.40;99.90;;;;;;5072589;28;20173;-63
2022/07/10 03:16:14;;;;;;;9.48;1.63;;;14.30;99.90;;;;;;5072656;28;20040;-63
2022/07/10 03:18:41;;;;;;;14.52;1.85;;;14.40;99.90;;;;;;5071862;28;20041;-63
2022/07/10 03:21:08;;;;;;;11.55;1.48;;;14.40;99.90;;;;;;5072192;28;20040;-63
2022/07/10 03:23:35;;;;;;;9.32;1.10;;;14.50;99.90;;;;;;5072052;28;20033;-63
2022/07/10 03:26:01;;;;;;;8.18;1.38;;;14.60;99.90;;;;;;5072039;28;20066;-63
2022/07/10 03:28:29;;;;;;;10.52;1.60;;;14.60;99.90;;;;;;5072102;28;20041;-63
2022/07/10 03:30:57;;;;;;;7.03;1.60;;;14.60;99.90;;;;;;5071982;28;20037;-63
2022/07/10 03:33:24;;;;;;;6.07;1.20;;;14.70;99.90;;;;;;5070367;28;20052;-64
2022/07/10 03:35:51;;;;;;;13.77;2.40;;;14.70;99.90;;;;;;5071075;28;20065;-62
2022/07/10 03:38:17;;;;;;;5.55;1.10;;;14.70;99.90;;;;;;5071920;28;20426;-64
2022/07/10 03:40:45;;;;;;;9.27;1.50;;;14.80;99.90;;;;;;5071722;28;20060;-63
2022/07/10 03:43:14;;;;;;;11.15;1.33;;;14.80;99.90;;;;;;5071740;28;20486;-64
2022/07/10 03:45:43;;;;;;;6.57;1.60;;;14.80;99.90;;;;;;5071683;28;20048;-64
2022/07/10 03:48:11;;;;;;;8.82;2.00;;;14.80;99.90;;;;;;5069850;28;20398;-64
2022/07/10 03:50:39;;;;;;;10.35;1.85;;;14.90;99.90;;;;;;5071572;28;20055;-64
2022/07/10 03:53:07;;;;;;;10.82;1.77;;;14.90;99.90;;;;;;5071939;28;20040;-64
2022/07/10 03:59:09;;;;;;;10.10;1.27;;;15.00;99.90;;;;;;5071845;28;20051;-63
2022/07/10 04:01:39;;;;;;;4.72;1.55;;;15.10;99.90;;;;;;5071441;28;20087;-63
2022/07/10 04:04:08;;;;;;;9.35;2.55;;;15.20;99.90;;;;;;5071731;28;20557;-64
2022/07/10 04:06:38;;;;;;;;;;;15.20;99.90;;;;;;5071933;28;20087;-64
2022/07/10 04:09:07;;;;;;;9.85;2.05;;;15.20;99.90;;;;;;5071801;28;19916;-63
2022/07/10 04:11:34;;;;;;;23.70;2.45;;;15.20;99.90;;;;;;5071547;28;20033;-63
2022/07/10 04:14:01;;;;;;;9.13;1.40;;;15.20;99.90;;;;;;5071500;28;20036;-62
2022/07/10 04:16:29;;;;;;;9.55;2.00;;;15.30;99.90;;;;;;5071137;28;20047;-64
2022/07/10 04:19:01;;;;;;;7.43;1.75;;;15.30;99.90;;;;;;5071348;28;20143;-64
2022/07/10 04:21:28;;;;;;;10.02;1.75;;;15.30;99.90;;;;;;5070895;28;20107;-63
2022/07/10 04:23:56;;;;;;;12.68;2.33;;;15.30;99.90;;;;;;5069523;28;20128;-64
2022/07/10 04:26:23;;;;;;;11.13;1.90;;;15.20;99.90;;;;;;5071149;28;20071;-64
2022/07/10 04:28:49;;;;;;;8.50;1.50;;;15.20;99.90;;;;;;5071422;28;20036;-63
2022/07/10 04:31:19;;;;;;;7.97;2.05;;;15.20;99.90;;;;;;5069809;28;20543;-63
2022/07/10 04:33:49;;;;;;;16.50;2.50;;;15.30;99.90;;;;;;5071355;28;20042;-63
2022/07/10 04:36:18;;;;;;;14.60;3.30;;;15.30;99.90;;;;;;5069728;28;20052;-64
2022/07/10 04:38:46;;;;;;;9.38;2.00;;;15.30;99.90;;;;;;5071051;28;20480;-63
2022/07/10 04:41:15;;;;;;;12.70;1.67;;;15.30;99.90;;;;;;5071234;28;20123;-64
2022/07/10 04:43:44;;;;;;;12.15;2.35;;;15.40;99.90;;;;;;5071254;28;20047;-63
2022/07/10 04:46:11;;;;;;;9.95;2.42;;;15.40;99.90;;;;;;5071998;28;20056;-63
2022/07/10 04:48:38;;;;;;;15.00;2.20;;;15.40;99.90;;;;;;5074752;28;20040;-64
2022/07/10 04:51:06;;;;;;;12.75;2.78;;;15.40;99.90;;;;;;5073756;28;20494;-63
2022/07/10 04:53:33;;;;;;;;;;;15.40;99.90;;;;;;5075396;28;20494;-64
2022/07/10 04:55:58;;;;;;;8.55;1.90;;;15.50;99.90;;;;;;5073556;28;19916;-65
2022/07/10 04:58:25;;;;;;;9.45;1.85;;;15.60;99.90;;;;;;5074886;28;20043;-64
2022/07/10 05:00:51;;;;;;;10.20;2.55;;;15.60;99.90;;;;;;5074747;28;20048;-65
2022/07/10 05:03:22;;;;;;;10.55;1.75;;;15.60;99.90;;;;;;5075036;28;20414;-63
2022/07/10 05:05:48;;;;;;;7.38;1.55;;;15.60;99.90;;;;;;5073457;28;20052;-64
2022/07/10 05:08:14;;;;;;;8.25;1.25;;;15.60;99.90;;;;;;5074872;28;20033;-63
2022/07/10 05:10:41;;;;;;;6.47;1.48;;;15.60;99.90;;;;;;5074613;28;20036;-63
2022/07/10 05:13:07;;;;;;;8.75;1.35;;;15.70;99.90;;;;;;5074530;28;20036;-64
2022/07/10 05:15:35;;;;;;;7.03;1.38;;;15.70;99.90;;;;;;5074410;28;20124;-63
2022/07/10 05:18:02;;;;;;;10.25;1.80;;;15.70;99.90;;;;;;5074566;28;20562;-64
2022/07/10 05:20:32;;;;;;;8.57;1.67;;;15.70;99.90;;;;;;5074392;28;20069;-64
2022/07/10 05:22:59;;;;;;;7.35;2.30;;;15.70;99.90;;;;;;5074375;28;20175;-64
2022/07/10 05:25:27;;;;;;;6.07;1.60;;;15.70;99.90;;;;;;5074010;28;20101;-63
2022/07/10 05:27:56;;;;;;;7.88;1.92;;;15.80;99.90;;;;;;5073318;28;20391;-63
2022/07/10 05:30:23;;;;;;;7.80;1.40;;;15.80;99.90;;;;;;5074555;28;20113;-63
2022/07/10 05:32:51;;;;;;;5.72;1.40;;;15.70;99.90;;;;;;5074373;28;20041;-64
2022/07/10 05:35:20;;;;;;;8.25;1.40;;;15.70;99.90;;;;;;5073777;28;20044;-63
2022/07/10 05:37:48;;;;;;;11.63;2.20;;;15.80;99.90;;;;;;5074159;28;20051;-63
2022/07/10 05:40:14;;;;;;;6.88;1.55;;;15.90;99.90;;;;;;5073707;28;20048;-63
2022/07/10 05:42:40;;;;;;;10.18;1.70;;;15.90;99.90;;;;;;5074109;28;20517;-64
2022/07/10 05:45:09;;;;;;;9.52;2.05;;;15.90;99.90;;;;;;5072662;28;20052;-63
2022/07/10 05:47:37;;;;;;;7.07;1.48;;;15.90;99.90;;;;;;5073992;28;20604;-63
2022/07/10 05:50:05;;;;;;;10.35;2.00;;;16.00;99.90;;;;;;5073952;28;20051;-64
2022/07/10 05:52:31;;;;;;;10.50;1.83;;;15.90;99.90;;;;;;5073931;28;20033;-64
2022/07/10 05:54:59;;;;;;;10.27;2.08;;;15.90;99.90;;;;;;5073830;28;20058;-64
2022/07/10 05:57:31;;;;;;;11.70;1.80;;;15.90;99.90;;;;;;5073956;28;20044;-64
2022/07/10 05:59:57;;;;;;;8.88;1.60;;;16.00;99.90;;;;;;5074076;28;20055;-64
2022/07/10 06:02:27;;;;;;;27.05;2.53;;;16.00;99.90;;;;;;5073784;28;20151;-64
2022/07/10 06:04:57;;;;;;;10.77;2.25;;;16.00;99.90;;;;;;5073532;28;20114;-64
2022/07/10 06:07:26;;;;;;;6.30;1.50;;;16.00;99.90;;;;;;5073613;28;20093;-64
2022/07/10 06:09:54;;;;;;;8.50;1.40;;;15.90;99.90;;;;;;5073513;28;20037;-63
2022/07/10 06:12:20;;;;;;;10.23;1.38;;;15.90;99.90;;;;;;5073557;28;20144;-63
2022/07/10 06:14:47;;;;;;;6.88;1.42;;;15.90;99.90;;;;;;5073537;28;20044;-64
2022/07/10 06:17:14;;;;;;;5.30;1.33;;;15.90;99.90;;;;;;5071556;28;20048;-63
2022/07/10 06:19:41;;;;;;;10.10;1.80;;;16.10;99.90;;;;;;5073467;28;20360;-65
2022/07/10 06:24:54;;;;;;;9.02;1.65;;;16.20;99.90;;;;;;5073150;28;20507;-63
2022/07/10 06:27:22;;;;;;;5.82;1.67;;;16.20;99.90;;;;;;5073081;28;20491;-64
2022/07/10 06:29:49;;;;;;;9.75;1.33;;;16.20;99.90;;;;;;5073135;28;20064;-64
2022/07/10 06:32:17;;;;;;;11.13;2.13;;;16.20;99.90;;;;;;5073119;28;20047;-64
2022/07/10 06:34:45;;;;;;;6.50;1.30;;;16.20;99.90;;;;;;5072950;28;20079;-63
2022/07/10 06:37:15;;;;;;;7.32;1.58;;;16.20;99.90;;;;;;5072938;28;20048;-63
2022/07/10 06:39:42;;;;;;;6.15;1.30;;;16.30;99.90;;;;;;5072889;28;20059;-64
2022/07/10 06:42:10;;;;;;;8.98;2.00;;;16.30;99.90;;;;;;5072882;28;20045;-64
2022/07/10 06:44:43;;;;;;;5.43;1.13;;;16.30;99.90;;;;;;5072391;28;20416;-65
2022/07/10 06:50:00;;;;;;;4.93;1.05;;;16.20;99.90;;;;;;5072850;28;20499;-64
2022/07/10 06:52:28;;;;;;;10.73;1.60;;;16.30;99.90;;;;;;5073041;28;20044;-64
2022/07/10 06:54:55;;;;;;;7.60;1.35;;;16.30;99.90;;;;;;5072925;28;20338;-64
2022/07/10 06:57:23;;;;;;;5.07;1.48;;;16.30;99.90;;;;;;5072763;28;20432;-65
2022/07/10 06:59:49;;;;;;;3.70;1.00;;;16.40;99.90;;;;;;5072650;28;20040;-63
2022/07/10 07:02:15;;;;;;;6.35;1.65;;;16.40;99.90;;;;;;5073038;28;20155;-63
2022/07/10 07:04:42;;;;;;;7.38;1.88;;;16.40;99.90;;;;;;5072625;28;20506;-62
2022/07/10 07:07:10;;;;;;;5.53;1.08;;;16.40;99.90;;;;;;5072741;28;20037;-63
2022/07/10 07:09:38;;;;;;;;;;;16.40;99.90;;;;;;5072311;28;20040;-62
2022/07/10 07:12:07;;;;;;;4.38;0.90;;;16.40;99.90;;;;;;5071932;28;19935;-63
2022/07/10 07:14:35;;;;;;;4.72;1.00;;;16.20;99.90;;;;;;5072232;28;20041;-63
2022/07/10 07:17:08;;;;;;;12.77;1.35;;;16.00;99.90;;;;;;5072377;28;20037;-63
2022/07/10 07:25:12;;;;;;;9.40;1.95;;;15.80;99.90;;;;;;5072059;28;20048;-63
2022/07/10 07:27:39;;;;;;;3.40;1.10;;;15.80;99.90;;;;;;5072053;28;20044;-63
2022/07/10 07:30:14;;;;;;;6.70;1.45;;;15.80;99.90;;;;;;5070599;28;20127;-63
2022/07/10 07:32:42;;;;;;;5.18;1.50;;;15.80;99.90;;;;;;5071803;28;20046;-64
2022/07/10 07:35:10;;;;;;;4.43;1.45;;;15.90;99.90;;;;;;5072036;28;20118;-63
2022/07/10 07:37:40;;;;;;;;;;;16.00;99.90;;;;;;5071423;28;20076;-55
2022/07/10 07:40:10;;;;;;;7.38;1.42;;;15.90;99.90;;;;;;5102522;28;19970;-56
2022/07/10 07:43:23;;;;;;;5.95;1.08;;;15.90;99.90;;;;;;5071392;28;20052;-56
2022/07/10 07:45:49;;;;;;;5.15;1.15;;;16.00;99.90;;;;;;5069686;28;20055;-57
2022/07/10 07:48:17;;;;;;;4.53;1.27;;;16.10;99.90;;;;;;5052341;28;20037;-56
2022/07/10 07:50:45;;;;;;;4.95;1.13;;;16.30;99.90;;;;;;5063860;28;20466;-56
2022/07/10 07:53:12;;;;;;;4.88;1.60;;;16.40;99.90;;;;;;5072096;28;20129;-56
2022/07/10 07:55:39;;;;;;;9.20;1.45;;;16.40;99.90;;;;;;5072032;28;20040;-56
2022/07/10 07:58:05;;;;;;;6.90;1.70;;;16.50;99.90;;;;;;5072180;28;20459;-57
2022/07/10 08:00:31;;;;;;;7.15;1.65;;;16.50;99.90;;;;;;5072321;28;20036;-57
2022/07/10 08:02:58;;;;;;;8.55;1.30;;;16.50;99.90;;;;;;5070224;28;20450;-56
2022/07/10 08:05:24;;;;;;;4.60;1.00;;;16.60;99.90;;;;;;5070247;28;20044;-56
2022/07/10 08:07:55;;;;;;;7.75;1.33;;;16.60;99.90;;;;;;5069904;28;20068;-55
2022/07/10 08:10:24;;;;;;;5.03;1.35;;;16.60;99.90;;;;;;5071928;28;20033;-56
2022/07/10 08:12:50;;;;;;;4.88;1.20;;;16.60;99.90;;;;;;5057929;28;20079;-57
2022/07/10 08:15:18;;;;;;;5.40;1.25;;;16.50;99.90;;;;;;5053657;28;20494;-57
2022/07/10 08:17:48;;;;;;;6.55;1.10;;;16.50;99.90;;;;;;5071243;28;20040;-56
2022/07/10 08:20:14;;;;;;;6.53;1.02;;;16.40;99.90;;;;;;5072151;28;20044;-56
2022/07/10 08:22:42;;;;;;;8.57;1.35;;;16.40;99.90;;;;;;5075216;28;20037;-56
2022/07/10 08:25:09;;;;;;;8.13;0.93;;;16.50;99.90;;;;;;5075837;28;20037;-56
2022/07/10 08:27:36;;;;;;;4.72;0.82;;;16.70;99.90;;;;;;5076031;28;20063;-57
2022/07/10 08:30:04;;;;;;;6.80;0.95;;;16.80;99.90;;;;;;5074406;28;20054;-55
2022/07/10 08:32:31;;;;;;;5.45;0.70;;;16.90;99.90;;;;;;5075637;28;20444;-56
2022/07/10 08:35:00;;;;;;;3.67;0.70;;;17.00;99.90;;;;;;5075505;28;20055;-55
2022/07/10 08:37:26;;;;;;;;;;;17.00;99.90;;;;;;5075897;28;20510;-56
2022/07/10 08:39:52;;;;;;;3.47;0.85;;;17.00;99.90;;;;;;5075205;28;19927;-56
2022/07/10 08:42:18;;;;;;;4.18;0.50;;;17.00;99.90;;;;;;5074662;28;20094;-55
2022/07/10 08:44:45;;;;;;;1.25;0.50;;;17.10;99.90;;;;;;5075501;28;20040;-56
2022/07/10 08:47:12;;;;;;;2.80;0.70;;;17.10;99.90;;;;;;5075564;28;20044;-56
2022/07/10 08:49:46;;;;;;;3.13;0.60;;;17.20;99.90;;;;;;5075183;28;20530;-56
2022/07/10 08:52:21;;;;;;;4.53;0.68;;;17.30;99.90;;;;;;5075216;28;20032;-56
2022/07/10 08:54:49;;;;;;;2.50;0.88;;;17.30;99.90;;;;;;5075199;28;20037;-56
2022/07/10 08:57:17;;;;;;;6.70;1.10;;;17.30;99.90;;;;;;5075008;28;20040;-57
2022/07/10 08:59:45;;;;;;;3.38;0.95;;;17.30;99.90;;;;;;5075154;28;20033;-56
2022/07/10 09:02:13;;;;;;;1.83;0.63;;;17.30;99.90;;;;;;5073725;28;20049;-55
2022/07/10 09:04:44;;;;;;;2.70;0.60;;;17.30;99.90;;;;;;5074989;28;20037;-55
2022/07/10 09:07:11;;;;;;;4.15;1.15;;;17.40;99.90;;;;;;5075024;28;20044;-55
2022/07/10 09:09:55;;;;;;;5.63;1.13;;;17.40;99.90;;;;;;5074905;28;20486;-55
2022/07/10 09:12:23;;;;;;;4.70;1.13;;;17.40;99.90;;;;;;5075198;28;20036;-56
2022/07/10 09:14:51;;;;;;;4.63;0.95;;;17.40;99.90;;;;;;5074733;28;20041;-56
2022/07/10 09:17:21;;;;;;;2.08;0.60;;;17.40;99.90;;;;;;5075186;28;20036;-56
2022/07/10 09:19:47;;;;;;;3.95;0.82;;;17.40;99.90;;;;;;5073614;28;20048;-56
2022/07/10 09:22:17;;;;;;;5.75;0.80;;;17.40;99.90;;;;;;5073169;28;20491;-55
2022/07/10 09:28:27;;;;;;;2.67;0.75;;;17.30;99.90;;;;;;5074668;28;20047;-56
2022/07/10 09:30:53;;;;;;;3.50;0.85;;;17.10;99.90;;;;;;5074395;28;20036;-56
2022/07/10 09:33:25;;;;;;;4.35;1.17;;;17.00;99.90;;;;;;5073998;28;20033;-56
2022/07/10 09:36:12;;;;;;;3.30;0.82;;;16.90;99.90;;;;;;5074450;28;20135;-56
2022/07/10 09:38:44;;;;;;;5.05;1.70;;;16.70;99.90;;;;;;5074467;28;20430;-55
2022/07/10 09:41:18;;;;;;;3.38;1.00;;;16.60;99.90;;;;;;5074847;28;20465;-56
2022/07/10 09:43:45;;;;;;;4.10;1.10;;;16.50;99.90;;;;;;5074366;28;20033;-55
2022/07/10 09:46:11;;;;;;;2.67;1.27;;;16.40;99.90;;;;;;5072921;28;20091;-56
2022/07/10 09:48:37;;;;;;;3.95;1.00;;;16.50;99.90;;;;;;5074127;28;20086;-55
2022/07/10 09:51:10;;;;;;;3.00;0.90;;;16.40;99.90;;;;;;5074212;28;20032;-56
2022/07/10 09:53:42;;;;;;;3.92;0.98;;;16.30;99.90;;;;;;5074244;28;20032;-55
2022/07/10 09:56:10;;;;;;;8.20;1.27;;;16.30;99.90;;;;;;5074047;28;20070;-56
2022/07/10 09:58:38;;;;;;;6.97;1.25;;;16.30;99.90;;;;;;5073954;28;20044;-56
2022/07/10 10:01:05;;;;;;;4.82;1.42;;;16.30;99.90;;;;;;5074173;28;20037;-55
2022/07/10 10:03:37;;;;;;;6.82;1.38;;;16.30;99.90;;;;;;5073843;28;20544;-56
2022/07/10 10:06:15;;;;;;;5.15;1.52;;;16.20;99.90;;;;;;5073653;28;20521;-56
2022/07/10 10:09:02;;;;;;;6.32;1.40;;;16.30;99.90;;;;;;5073662;28;20474;-56
2022/07/10 10:11:35;;;;;;;4.20;1.10;;;16.50;99.90;;;;;;5073968;28;20036;-57
2022/07/10 10:14:08;;;;;;;4.85;1.33;;;16.40;99.90;;;;;;5073692;28;20037;-57
2022/07/10 10:16:35;;;;;;;12.18;2.45;;;16.70;99.90;;;;;;5073311;28;20032;-57
2022/07/10 10:21:48;;;;;;;6.63;1.95;;;17.00;99.90;;;;;;5072405;28;20151;-55
2022/07/10 10:24:15;;;;;;;8.38;2.15;;;16.90;99.90;;;;;;5072998;28;20047;-57
2022/07/10 10:26:43;;;;;;;7.32;1.55;;;17.00;99.90;;;;;;5071631;28;20041;-56
2022/07/10 10:29:12;;;;;;;5.32;1.55;;;16.90;99.90;;;;;;5072420;28;20085;-56
2022/07/10 10:31:41;;;;;;;9.63;2.75;;;17.00;99.90;;;;;;5071957;28;20367;-57
2022/07/10 10:34:09;;;;;;;7.72;1.88;;;17.00;99.90;;;;;;5073171;28;20033;-57
2022/07/10 10:36:44;;;;;;;7.75;1.98;;;17.00;99.90;;;;;;5071731;28;20139;-57
2022/07/10 10:39:13;;;;;;;4.30;1.52;;;17.10;99.90;;;;;;5072921;28;20503;-57
2022/07/10 10:41:52;;;;;;;5.65;1.63;;;17.10;99.90;;;;;;5073174;28;20055;-57
2022/07/10 10:44:19;;;;;;;6.13;1.90;;;17.40;99.90;;;;;;5072198;28;20560;-56
2022/07/10 10:46:54;;;;;;;7.28;2.40;;;17.20;99.90;;;;;;5072933;28;20033;-58
2022/07/10 10:49:25;;;;;;;6.20;1.48;;;17.30;99.90;;;;;;5073182;28;20041;-57
2022/07/10 10:52:08;;;;;;;5.40;1.35;;;17.20;99.90;;;;;;5073132;28;20467;-57
2022/07/10 10:54:57;;;;;;;6.63;1.77;;;17.10;99.90;;;;;;5072921;28;20036;-56
2022/07/10 10:57:35;;;;;;;12.50;2.03;;;16.90;99.90;;;;;;5072764;28;20044;-57
2022/07/10 11:00:08;;;;;;;8.35;2.05;;;17.00;99.90;;;;;;5072718;28;20119;-58
2022/07/10 11:02:39;;;;;;;4.88;1.77;;;17.00;99.90;;;;;;5072768;28;20052;-57
2022/07/10 11:05:12;;;;;;;5.03;1.65;;;16.90;99.90;;;;;;5072615;28;20368;-57
2022/07/10 11:08:03;;;;;;;6.15;1.50;;;17.00;99.90;;;;;;5072462;28;20043;-57
2022/07/10 11:10:39;;;;;;;5.20;2.03;;;17.20;99.90;;;;;;5071451;28;20040;-57
2022/07/10 11:13:18;;;;;;;4.82;1.73;;;17.50;99.90;;;;;;5072610;28;20036;-57
2022/07/10 11:15:47;;;;;;;8.75;1.80;;;17.50;99.90;;;;;;5072558;28;20070;-57
2022/07/10 11:18:15;;;;;;;4.93;1.35;;;17.40;99.90;;;;;;5072586;28;20068;-57
2022/07/10 11:20:49;;;;;;;5.75;1.42;;;17.60;99.90;;;;;;5072757;28;20079;-56
2022/07/10 11:23:52;;;;;;;9.15;2.00;;;17.60;99.90;;;;;;5072484;28;20076;-57
2022/07/10 11:26:40;;;;;;;7.70;2.13;;;17.50;99.90;;;;;;5071150;28;20513;-58
2022/07/10 11:29:06;;;;;;;5.50;2.08;;;17.20;99.90;;;;;;5072524;28;20115;-57
2022/07/10 11:31:41;;;;;;;5.45;2.13;;;17.10;99.90;;;;;;5070929;28;20173;-57
2022/07/10 11:34:08;;;;;;;5.43;2.30;;;17.40;99.90;;;;;;5072066;28;20485;-57
2022/07/10 11:36:38;;;;;;;4.43;1.73;;;17.30;99.90;;;;;;5072085;28;20037;-57
2022/07/10 11:39:09;;;;;;;5.28;2.10;;;17.40;99.90;;;;;;5072403;28;20474;-56
2022/07/10 11:41:49;;;;;;;7.03;2.13;;;17.60;99.90;;;;;;5072161;28;20074;-57
2022/07/10 11:44:20;;;;;;;3.47;1.67;;;17.70;99.90;;;;;;5071884;28;20376;-56
2022/07/10 11:46:49;;;;;;;3.95;1.80;;;17.70;99.90;;;;;;5072017;28;20044;-57
2022/07/10 11:49:17;;;;;;;4.80;1.75;;;17.80;99.90;;;;;;5072152;28;20134;-57
2022/07/10 11:51:44;;;;;;;5.03;1.58;;;17.70;99.90;;;;;;5072276;28;20048;-57
2022/07/10 11:54:13;;;;;;;3.70;1.65;;;17.80;99.90;;;;;;5070567;28;20044;-57
2022/07/10 11:56:43;;;;;;;4.65;1.88;;;17.70;99.90;;;;;;5071826;28;20121;-57
2022/07/10 11:59:11;;;;;;;6.93;2.42;;;17.70;99.90;;;;;;5071245;28;20390;-57
2022/07/10 12:01:49;;;;;;;6.30;1.80;;;17.60;99.90;;;;;;5071737;28;20128;-57
2022/07/10 12:04:23;;;;;;;6.18;2.00;;;17.70;99.90;;;;;;5070572;28;20059;-56
2022/07/10 12:06:52;;;;;;;8.32;2.50;;;17.50;99.90;;;;;;5071710;28;20119;-57
2022/07/10 12:09:38;;;;;;;8.95;2.30;;;17.60;99.90;;;;;;5071799;28;20032;-57
2022/07/10 12:12:06;;;;;;;7.13;1.63;;;17.60;99.90;;;;;;5071603;28;20041;-56
2022/07/10 12:14:34;;;;;;;4.93;1.63;;;17.70;99.90;;;;;;5071599;28;20170;-58
2022/07/10 12:17:01;;;;;;;8.48;1.83;;;17.70;99.90;;;;;;5071729;28;20407;-57
2022/07/10 12:19:31;;;;;;;9.35;1.73;;;17.70;99.90;;;;;;5071666;28;20036;-56
2022/07/10 12:22:00;;;;;;;7.80;1.80;;;17.80;99.90;;;;;;5069516;28;20075;-56
2022/07/10 12:24:28;;;;;;;3.60;1.50;;;17.90;99.90;;;;;;5071548;28;20521;-57
2022/07/10 12:26:58;;;;;;;3.78;1.63;;;17.80;99.90;;;;;;5071781;28;20075;-58
2022/07/10 12:29:28;;;;;;;14.77;2.78;;;17.60;99.90;;;;;;5071520;28;20047;-57
2022/07/10 12:31:55;;;;;;;6.63;2.00;;;17.60;99.90;;;;;;5071618;28;20052;-57
2022/07/10 12:34:42;;;;;;;6.78;1.70;;;17.50;99.90;;;;;;5070327;28;20060;-57
2022/07/10 12:37:10;;;;;;;5.20;1.58;;;17.40;99.90;;;;;;5071323;28;20082;-58
2022/07/10 12:39:47;;;;;;;9.70;2.97;;;17.50;99.90;;;;;;5071503;28;20053;-57
2022/07/10 12:42:14;;;;;;;7.20;1.80;;;17.70;99.90;;;;;;5071235;28;20067;-58
2022/07/10 12:44:47;;;;;;;17.33;2.38;;;17.70;99.90;;;;;;5071415;28;20072;-58
2022/07/10 12:47:15;;;;;;;9.35;1.77;;;17.50;99.90;;;;;;5069515;28;20052;-57
2022/07/10 12:50:03;;;;;;;7.35;1.52;;;17.50;99.90;;;;;;5071329;28;20074;-58
2022/07/10 12:52:35;;;;;;;7.22;2.08;;;17.50;99.90;;;;;;5071208;28;20094;-57
2022/07/10 12:55:10;;;;;;;11.70;1.90;;;17.40;99.90;;;;;;5069307;28;20055;-58
2022/07/10 12:57:48;;;;;;;7.55;1.95;;;17.40;99.90;;;;;;5071111;28;20426;-58
2022/07/10 13:00:18;;;;;;;11.52;2.20;;;17.50;99.90;;;;;;5070772;28;20115;-56
2022/07/10 13:02:49;;;;;;;3.67;1.48;;;17.50;99.90;;;;;;5071410;28;20044;-57
2022/07/10 13:05:27;;;;;;;8.85;1.75;;;17.40;99.90;;;;;;5071199;28;20483;-57
2022/07/10 13:08:24;;;;;;;9.25;1.88;;;17.60;99.90;;;;;;5072218;28;20036;-57
2022/07/10 13:11:01;;;;;;;5.82;1.65;;;17.50;99.90;;;;;;5075089;28;20045;-56
2022/07/10 13:13:31;;;;;;;7.00;1.88;;;17.40;99.90;;;;;;5074897;28;20044;-56
2022/07/10 13:15:57;;;;;;;8.43;1.88;;;17.20;99.90;;;;;;5074856;28;20044;-56
2022/07/10 13:18:26;;;;;;;6.10;2.28;;;17.40;99.90;;;;;;5073283;28;20088;-57
2022/07/10 13:20:55;;;;;;;4.78;2.08;;;17.30;99.90;;;;;;5073608;28;20475;-56